createdAt,value
2023-04-07T02:02:10.897Z,9.02
2023-04-07T02:03:23.302Z,8.82
2023-04-07T02:05:40.304Z,10.02
2023-04-07T02:06:53.047Z,9.30
2023-04-07T02:08:03.959Z,9.88
2023-04-07T02:09:13.073Z,9.50
2023-04-07T02:10:17.343Z,9.63
2023-04-07T02:11:22.166Z,10.65
2023-04-07T02:12:29.838Z,10.02
2023-04-07T02:13:43.481Z,9.40
2023-04-07T02:14:47.511Z,9.93
2023-04-07T02:15:53.363Z,9.88
2023-04-07T02:16:57.717Z,10.65
2023-04-07T02:18:01.294Z,9.75
2023-04-07T02:19:04.616Z,10.18
2023-04-07T02:20:10.577Z,10.27
2023-04-07T02:21:15.493Z,9.20
2023-04-07T02:22:21.017Z,8.77
2023-04-07T02:23:23.170Z,9.63
2023-04-07T02:24:25.461Z,9.50
2023-04-07T02:25:30.043Z,9.50
2023-04-07T02:26:36.102Z,8.80
2023-04-07T02:27:38.271Z,9.55
2023-04-07T02:28:40.944Z,9.27
2023-04-07T02:29:43.211Z,9.73
2023-04-07T02:30:45.368Z,10.02
2023-04-07T02:31:47.550Z,9.50
2023-04-07T02:32:49.893Z,9.18
2023-04-07T02:33:52.344Z,9.52
2023-04-07T02:34:54.660Z,9.60
2023-04-07T02:35:56.782Z,9.32
2023-04-07T02:36:58.970Z,9.48
2023-04-07T02:38:02.774Z,9.63
2023-04-07T02:39:04.991Z,9.95
2023-04-07T02:40:07.760Z,9.25
2023-04-07T02:41:09.976Z,9.07
2023-04-07T02:42:12.158Z,9.93
2023-04-07T02:43:14.649Z,10.45
2023-04-07T02:44:16.950Z,10.05
2023-04-07T02:45:19.129Z,9.50
2023-04-07T02:46:21.454Z,9.68
2023-04-07T02:47:24.025Z,10.18
2023-04-07T02:48:26.369Z,9.30
2023-04-07T02:49:28.530Z,9.88
2023-04-07T02:50:30.757Z,9.77
2023-04-07T02:51:33.002Z,9.27
2023-04-07T02:52:35.458Z,10.18
2023-04-07T02:53:41.328Z,9.43
2023-04-07T02:54:44.050Z,9.63
2023-04-07T02:55:47.579Z,10.18
2023-04-07T02:56:49.853Z,10.10
2023-04-07T02:57:52.103Z,9.30
2023-04-07T02:59:12.891Z,10.20
2023-04-07T03:00:18.498Z,8.90
2023-04-07T03:01:35.000Z,9.52
2023-04-07T03:02:37.787Z,10.13
2023-04-07T03:03:42.300Z,10.13
2023-04-07T03:04:51.939Z,9.93
2023-04-07T03:05:54.676Z,9.88
2023-04-07T03:06:56.946Z,8.80
2023-04-07T03:07:59.306Z,9.75
2023-04-07T03:09:01.668Z,9.43
2023-04-07T03:10:04.054Z,9.45
2023-04-07T03:11:07.841Z,8.88
2023-04-07T03:12:10.548Z,9.27
2023-04-07T03:13:13.601Z,9.25
2023-04-07T03:14:16.289Z,9.35
2023-04-07T03:15:21.931Z,9.23
2023-04-07T03:16:25.548Z,9.68
2023-04-07T03:17:54.031Z,9.35
2023-04-07T03:18:56.453Z,9.50
2023-04-07T03:19:59.044Z,9.75
2023-04-07T03:21:02.947Z,10.10
2023-04-07T03:22:06.001Z,9.00
2023-04-07T03:23:11.916Z,9.30
2023-04-07T03:24:14.279Z,9.13
2023-04-07T03:25:16.771Z,10.25
2023-04-07T03:26:20.741Z,9.70
2023-04-07T03:27:22.976Z,9.80
2023-04-07T03:28:25.339Z,10.40
2023-04-07T03:29:27.531Z,10.82
2023-04-07T03:30:29.868Z,9.90
2023-04-07T03:31:32.223Z,10.48
2023-04-07T03:32:34.629Z,10.63
2023-04-07T03:33:36.773Z,11.27
2023-04-07T03:34:38.944Z,10.52
2023-04-07T03:35:42.317Z,11.02
2023-04-07T03:36:46.730Z,11.38
2023-04-07T03:37:48.990Z,11.23
2023-04-07T03:38:53.725Z,11.38
2023-04-07T03:39:56.295Z,11.20
2023-04-07T03:41:05.175Z,11.13
2023-04-07T03:42:07.312Z,11.00
2023-04-07T03:43:12.432Z,10.80
2023-04-07T03:44:14.714Z,11.00
2023-04-07T03:45:17.497Z,10.98
2023-04-07T03:46:23.792Z,9.93
2023-04-07T03:47:26.257Z,10.75
2023-04-07T03:48:32.948Z,10.60
2023-04-07T03:49:40.531Z,10.32
2023-04-07T03:50:43.334Z,10.65
2023-04-07T03:51:50.266Z,10.25
2023-04-07T03:52:54.109Z,11.23
2023-04-07T03:54:00.698Z,9.77
2023-04-07T03:55:15.902Z,11.68
2023-04-07T03:56:18.098Z,11.23
2023-04-07T03:57:23.644Z,11.27
2023-04-07T03:58:27.228Z,11.05
2023-04-07T03:59:29.376Z,11.27
2023-04-07T04:00:36.695Z,10.60
2023-04-07T04:01:44.772Z,11.63
2023-04-07T04:02:50.709Z,11.90
2023-04-07T04:03:55.916Z,10.80
2023-04-07T04:05:06.394Z,11.80
2023-04-07T04:06:08.663Z,10.35
2023-04-07T04:07:10.849Z,11.57
2023-04-07T04:08:22.057Z,11.20
2023-04-07T04:09:24.305Z,11.70
2023-04-07T04:10:27.245Z,12.00
2023-04-07T04:11:31.585Z,11.52
2023-04-07T04:12:37.892Z,11.80
2023-04-07T04:13:44.515Z,10.70
2023-04-07T04:14:47.500Z,11.55
2023-04-07T04:15:51.521Z,11.30
2023-04-07T04:16:54.633Z,11.70
2023-04-07T04:18:22.959Z,10.57
2023-04-07T04:19:26.335Z,10.93
2023-04-07T04:20:30.674Z,10.70
2023-04-07T04:21:33.010Z,11.30
2023-04-07T04:22:35.887Z,12.60
2023-04-07T04:23:38.048Z,11.70
2023-04-07T04:24:42.714Z,11.18
2023-04-07T04:25:44.967Z,11.77
2023-04-07T04:26:48.300Z,11.82
2023-04-07T04:27:50.696Z,11.82
2023-04-07T04:28:56.620Z,17.85
2023-04-07T04:29:58.964Z,13.88
2023-04-07T04:31:10.311Z,11.27
2023-04-07T04:32:17.793Z,11.15
2023-04-07T04:33:20.830Z,10.95
2023-04-07T04:34:30.592Z,10.07
2023-04-07T04:35:32.948Z,10.15
2023-04-07T04:36:44.835Z,10.75
2023-04-07T04:37:47.442Z,10.73
2023-04-07T04:38:50.582Z,12.10
2023-04-07T04:39:55.486Z,10.93
2023-04-07T04:40:59.500Z,11.25
2023-04-07T04:42:05.742Z,10.77
2023-04-07T04:43:10.929Z,11.63
2023-04-07T04:44:15.616Z,11.88
2023-04-07T04:45:18.356Z,11.77
2023-04-07T04:46:23.167Z,11.68
2023-04-07T04:47:26.098Z,11.40
2023-04-07T04:48:28.454Z,11.50
2023-04-07T04:49:31.473Z,11.40
2023-04-07T04:50:37.166Z,12.27
2023-04-07T04:51:45.492Z,11.48
2023-04-07T04:52:51.558Z,11.85
2023-04-07T04:53:57.667Z,12.10
2023-04-07T04:55:02.151Z,12.35
2023-04-07T04:56:05.382Z,11.55
2023-04-07T04:57:15.952Z,11.90
2023-04-07T04:58:20.546Z,12.07
2023-04-07T04:59:27.046Z,11.18
2023-04-07T05:00:36.298Z,11.85
2023-04-07T05:01:42.221Z,11.27
2023-04-07T05:02:48.560Z,13.30
2023-04-07T05:03:51.309Z,12.40
2023-04-07T05:05:01.437Z,11.35
2023-04-07T05:06:05.263Z,12.30
2023-04-07T05:07:08.175Z,12.65
2023-04-07T05:08:11.470Z,12.45
2023-04-07T05:09:15.684Z,12.77
2023-04-07T05:10:20.857Z,11.23
2023-04-07T05:11:26.651Z,12.73
2023-04-07T05:12:31.140Z,11.90
2023-04-07T05:13:36.921Z,12.18
2023-04-07T05:14:39.958Z,13.02
2023-04-07T05:15:44.016Z,12.70
2023-04-07T05:16:48.516Z,13.43
2023-04-07T05:17:56.202Z,13.77
2023-04-07T05:19:02.111Z,13.63
2023-04-07T05:20:05.842Z,12.77
2023-04-07T05:21:11.697Z,12.35
2023-04-07T05:22:13.949Z,13.13
2023-04-07T05:23:22.415Z,13.60
2023-04-07T05:24:28.561Z,14.07
2023-04-07T05:25:34.530Z,13.98
2023-04-07T05:26:39.752Z,12.85
2023-04-07T05:27:41.977Z,13.43
2023-04-07T05:28:48.969Z,14.32
2023-04-07T05:29:55.224Z,14.32
2023-04-07T05:31:07.539Z,13.25
2023-04-07T05:32:11.167Z,12.35
2023-04-07T05:33:13.759Z,12.05
2023-04-07T05:34:22.754Z,12.02
2023-04-07T05:35:29.068Z,11.90
2023-04-07T05:36:35.151Z,12.23
2023-04-07T05:37:37.410Z,12.38
2023-04-07T05:38:41.905Z,11.52
2023-04-07T05:39:48.826Z,11.52
2023-04-07T05:40:51.580Z,11.23
2023-04-07T05:42:02.951Z,11.77
2023-04-07T05:43:05.201Z,12.63
2023-04-07T05:44:09.177Z,12.27
2023-04-07T05:45:15.945Z,12.48
2023-04-07T05:46:21.876Z,11.82
2023-04-07T05:47:30.925Z,11.13
2023-04-07T05:48:33.236Z,11.82
2023-04-07T05:49:35.770Z,11.05
2023-04-07T05:50:42.381Z,11.48
2023-04-07T05:51:49.237Z,11.27
2023-04-07T05:52:51.716Z,12.48
2023-04-07T05:54:03.646Z,12.07
2023-04-07T05:55:07.313Z,12.05
2023-04-07T05:56:09.572Z,12.90
2023-04-07T05:57:21.261Z,12.55
2023-04-07T05:58:24.511Z,12.82
2023-04-07T05:59:29.561Z,13.00
2023-04-07T06:00:31.929Z,11.23
2023-04-07T06:01:42.989Z,11.88
2023-04-07T06:02:46.837Z,12.50
2023-04-07T06:03:53.657Z,12.20
2023-04-07T06:05:01.101Z,12.50
2023-04-07T06:06:03.425Z,14.15
2023-04-07T06:07:06.008Z,14.10
2023-04-07T06:08:08.216Z,12.88
2023-04-07T06:09:10.556Z,13.40
2023-04-07T06:10:12.754Z,12.73
2023-04-07T06:11:15.034Z,12.55
2023-04-07T06:12:17.409Z,12.10
2023-04-07T06:13:19.654Z,12.20
2023-04-07T06:14:21.922Z,12.15
2023-04-07T06:15:24.160Z,12.27
2023-04-07T06:16:26.380Z,12.45
2023-04-07T06:17:28.762Z,12.60
2023-04-07T06:18:31.108Z,12.25
2023-04-07T06:19:34.143Z,12.45
2023-04-07T06:20:36.694Z,11.10
2023-04-07T06:21:39.858Z,12.35
2023-04-07T06:22:42.048Z,11.52
2023-04-07T06:23:44.233Z,12.27
2023-04-07T06:24:46.515Z,12.68
2023-04-07T06:25:52.954Z,12.45
2023-04-07T06:26:56.806Z,13.07
2023-04-07T06:27:59.049Z,11.90
2023-04-07T06:29:01.617Z,12.18
2023-04-07T06:30:04.240Z,12.45
2023-04-07T06:31:07.104Z,11.38
2023-04-07T06:32:09.343Z,11.65
2023-04-07T06:33:11.940Z,13.23
2023-04-07T06:34:16.449Z,12.60
2023-04-07T06:35:18.740Z,11.40
2023-04-07T06:36:21.670Z,11.25
2023-04-07T06:37:25.130Z,11.75
2023-04-07T06:38:27.314Z,11.70
2023-04-07T06:39:30.557Z,11.68
2023-04-07T06:40:33.201Z,10.60
2023-04-07T06:41:36.591Z,11.38
2023-04-07T06:42:39.153Z,11.20
2023-04-07T06:43:49.122Z,11.45
2023-04-07T06:44:51.525Z,11.43
2023-04-07T06:45:53.772Z,11.77
2023-04-07T06:46:56.355Z,11.18
2023-04-07T06:47:58.674Z,11.55
2023-04-07T06:49:01.157Z,11.32
2023-04-07T06:50:03.436Z,11.43
2023-04-07T06:51:05.791Z,10.82
2023-04-07T06:52:07.930Z,11.30
2023-04-07T06:53:10.282Z,11.77
2023-04-07T06:54:13.944Z,12.75
2023-04-07T06:55:16.233Z,11.20
2023-04-07T06:56:24.144Z,11.75
2023-04-07T06:57:27.522Z,12.18
2023-04-07T06:58:29.691Z,11.40
2023-04-07T06:59:31.861Z,11.52
2023-04-07T07:00:34.490Z,10.98
2023-04-07T07:01:37.798Z,11.02
2023-04-07T07:02:40.728Z,10.95
2023-04-07T07:03:43.272Z,11.27
2023-04-07T07:04:45.801Z,11.95
2023-04-07T07:05:48.992Z,11.23
2023-04-07T07:06:52.647Z,11.48
2023-04-07T07:07:54.936Z,10.98
2023-04-07T07:08:57.601Z,11.00
2023-04-07T07:09:59.857Z,11.32
2023-04-07T07:11:02.082Z,11.70
2023-04-07T07:12:04.442Z,10.65
2023-04-07T07:13:06.605Z,10.68
2023-04-07T07:14:08.843Z,11.00
2023-04-07T07:15:11.143Z,10.00
2023-04-07T07:16:13.458Z,10.30
2023-04-07T07:17:16.340Z,10.88
2023-04-07T07:18:19.338Z,9.55
2023-04-07T07:19:21.637Z,8.50
2023-04-07T07:20:25.718Z,8.60
2023-04-07T07:21:28.056Z,8.90
2023-04-07T07:22:30.360Z,8.82
2023-04-07T07:23:32.784Z,9.02
2023-04-07T07:24:35.150Z,8.75
2023-04-07T07:25:37.361Z,8.77
2023-04-07T07:26:42.294Z,7.72
2023-04-07T07:27:45.986Z,7.15
2023-04-07T07:28:48.247Z,7.80
2023-04-07T07:29:50.448Z,7.50
2023-04-07T07:30:52.732Z,7.97
2023-04-07T07:31:55.832Z,7.45
2023-04-07T07:32:58.618Z,7.85
2023-04-07T07:34:00.927Z,7.93
2023-04-07T07:35:03.118Z,6.70
2023-04-07T07:36:05.586Z,6.57
2023-04-07T07:37:08.074Z,5.70
2023-04-07T07:38:11.697Z,6.10
2023-04-07T07:39:14.333Z,6.18
2023-04-07T07:40:16.486Z,6.40
2023-04-07T07:41:18.781Z,5.78
2023-04-07T07:42:21.048Z,6.35
2023-04-07T07:43:23.197Z,5.68
2023-04-07T07:44:25.461Z,5.28
2023-04-07T07:45:27.649Z,5.70
2023-04-07T07:46:29.880Z,5.90
2023-04-07T07:47:32.374Z,5.97
2023-04-07T07:48:34.600Z,5.72
2023-04-07T07:49:36.927Z,6.28
2023-04-07T07:50:39.241Z,5.72
2023-04-07T07:51:41.405Z,6.78
2023-04-07T07:52:43.685Z,5.88
2023-04-07T07:53:46.343Z,5.63
2023-04-07T07:54:50.138Z,5.57
2023-04-07T07:55:52.656Z,5.65
2023-04-07T07:56:54.846Z,5.40
2023-04-07T07:57:57.051Z,4.78
2023-04-07T07:58:59.260Z,4.82
2023-04-07T08:00:01.458Z,5.30
2023-04-07T08:01:03.794Z,4.95
2023-04-07T08:02:06.732Z,5.40
2023-04-07T08:03:09.035Z,4.50
2023-04-07T08:04:11.496Z,4.55
2023-04-07T08:05:13.858Z,5.00
2023-04-07T08:06:16.553Z,4.60
2023-04-07T08:07:18.843Z,4.32
2023-04-07T08:08:21.173Z,4.28
2023-04-07T08:09:23.315Z,4.13
2023-04-07T08:10:25.636Z,4.25
2023-04-07T08:11:27.878Z,4.25
2023-04-07T08:12:30.168Z,4.40
2023-04-07T08:13:32.441Z,4.47
2023-04-07T08:14:34.669Z,4.43
2023-04-07T08:15:37.118Z,4.47
2023-04-07T08:16:39.365Z,4.07
2023-04-07T08:17:41.632Z,4.47
2023-04-07T08:18:43.907Z,3.88
2023-04-07T08:19:46.359Z,3.47
2023-04-07T08:20:48.598Z,3.30
2023-04-07T08:21:50.914Z,3.55
2023-04-07T08:22:53.053Z,4.00
2023-04-07T08:23:55.867Z,3.88
2023-04-07T08:24:58.057Z,3.95
2023-04-07T08:26:00.516Z,3.80
2023-04-07T08:27:02.821Z,3.42
2023-04-07T08:28:05.257Z,3.78
2023-04-07T08:29:07.386Z,3.90
2023-04-07T08:30:09.893Z,3.47
2023-04-07T08:31:12.197Z,3.55
2023-04-07T08:32:14.477Z,3.40
2023-04-07T08:33:16.682Z,3.20
2023-04-07T08:34:20.745Z,3.95
2023-04-07T08:35:23.062Z,3.70
2023-04-07T08:36:26.375Z,3.60
2023-04-07T08:37:28.623Z,3.45
2023-04-07T08:38:31.215Z,3.58
2023-04-07T08:39:33.967Z,3.47
2023-04-07T08:40:36.331Z,3.47
2023-04-07T08:41:40.825Z,3.15
2023-04-07T08:42:47.390Z,3.08
2023-04-07T08:43:51.476Z,3.33
2023-04-07T08:44:56.202Z,2.75
2023-04-07T08:45:58.621Z,3.03
2023-04-07T08:47:03.334Z,3.33
2023-04-07T08:48:17.596Z,3.60
2023-04-07T08:49:21.267Z,3.22
2023-04-07T08:50:27.116Z,3.10
2023-04-07T08:51:33.127Z,2.88
2023-04-07T08:52:49.872Z,3.40
2023-04-07T08:53:54.238Z,3.00
2023-04-07T08:54:58.064Z,2.97
2023-04-07T08:56:02.051Z,2.83
2023-04-07T08:57:05.558Z,3.05
2023-04-07T08:58:12.438Z,2.95
2023-04-07T08:59:15.814Z,3.03
2023-04-07T09:00:18.519Z,2.42
2023-04-07T09:01:21.148Z,3.05
2023-04-07T09:02:23.837Z,2.50
2023-04-07T09:03:26.925Z,2.53
2023-04-07T09:04:29.219Z,2.35
2023-04-07T09:05:32.439Z,2.40
2023-04-07T09:06:35.403Z,2.47
2023-04-07T09:07:40.204Z,2.42
2023-04-07T09:08:42.322Z,2.70
2023-04-07T09:09:44.523Z,2.53
2023-04-07T09:10:46.728Z,2.50
2023-04-07T09:11:49.157Z,2.63
2023-04-07T09:12:51.368Z,2.47
2023-04-07T09:13:54.748Z,2.20
2023-04-07T09:14:58.036Z,2.47
2023-04-07T09:16:02.086Z,2.20
2023-04-07T09:17:04.600Z,2.60
2023-04-07T09:18:07.016Z,2.38
2023-04-07T09:19:09.468Z,2.60
2023-04-07T09:20:11.680Z,2.55
2023-04-07T09:21:15.539Z,2.30
2023-04-07T09:22:35.205Z,2.13
2023-04-07T09:23:39.921Z,2.75
2023-04-07T09:24:42.295Z,2.80
2023-04-07T09:25:44.453Z,2.47
2023-04-07T09:26:46.587Z,2.90
2023-04-07T09:27:59.261Z,2.70
2023-04-07T09:29:03.254Z,2.70
2023-04-07T09:30:15.832Z,2.63
2023-04-07T09:31:18.160Z,2.80
2023-04-07T09:32:38.735Z,2.47
2023-04-07T09:33:41.228Z,2.30
2023-04-07T09:34:43.518Z,2.75
2023-04-07T09:35:56.057Z,2.78
2023-04-07T09:36:59.121Z,2.53
2023-04-07T09:38:09.033Z,2.85
2023-04-07T09:39:11.478Z,2.47
2023-04-07T09:40:27.015Z,2.72
2023-04-07T09:41:29.291Z,2.58
2023-04-07T09:42:35.289Z,2.92
2023-04-07T09:43:40.415Z,2.67
2023-04-07T09:44:44.050Z,2.70
2023-04-07T09:45:46.704Z,2.97
2023-04-07T09:46:53.790Z,2.70
2023-04-07T09:47:56.076Z,3.20
2023-04-07T09:49:05.357Z,3.05
2023-04-07T09:50:08.130Z,3.38
2023-04-07T09:51:17.820Z,3.72
2023-04-07T09:52:23.482Z,3.53
2023-04-07T09:53:46.541Z,3.20
2023-04-07T09:54:49.234Z,3.17
2023-04-07T09:55:52.101Z,2.78
2023-04-07T09:56:55.532Z,3.00
2023-04-07T09:57:58.203Z,2.55
2023-04-07T09:59:01.848Z,2.90
2023-04-07T10:00:05.295Z,3.05
2023-04-07T10:01:17.611Z,3.03
2023-04-07T10:02:19.932Z,3.53
2023-04-07T10:03:22.157Z,2.80
2023-04-07T10:04:25.534Z,2.85
2023-04-07T10:05:28.116Z,2.50
2023-04-07T10:06:31.019Z,2.95
2023-04-07T10:07:33.490Z,2.78
2023-04-07T10:08:37.747Z,2.70
2023-04-07T10:09:40.148Z,2.70
2023-04-07T10:10:43.775Z,2.47
2023-04-07T10:11:46.610Z,2.70
2023-04-07T10:12:50.112Z,2.75
2023-04-07T10:13:52.475Z,2.45
2023-04-07T10:14:55.609Z,2.63
2023-04-07T10:15:58.856Z,2.75
2023-04-07T10:17:01.968Z,3.13
2023-04-07T10:18:07.376Z,2.58
2023-04-07T10:19:09.627Z,2.60
2023-04-07T10:20:12.243Z,2.75
2023-04-07T10:21:17.975Z,2.60
2023-04-07T10:22:21.266Z,2.85
2023-04-07T10:23:56.155Z,2.90
2023-04-07T10:25:02.814Z,2.30
2023-04-07T10:26:08.026Z,3.03
2023-04-07T10:27:16.378Z,2.15
2023-04-07T10:28:21.201Z,2.72
2023-04-07T10:29:24.661Z,2.53
2023-04-07T10:30:30.924Z,2.75
2023-04-07T10:31:33.877Z,2.35
2023-04-07T10:32:47.630Z,2.60
2023-04-07T10:33:53.962Z,2.90
2023-04-07T10:34:58.038Z,2.80
2023-04-07T10:36:07.305Z,2.58
2023-04-07T10:37:13.437Z,2.13
2023-04-07T10:38:16.597Z,2.63
2023-04-07T10:39:20.460Z,2.58
2023-04-07T10:40:27.917Z,2.90
2023-04-07T10:41:36.556Z,2.10
2023-04-07T10:42:45.201Z,2.80
2023-04-07T10:43:47.923Z,2.72
2023-04-07T10:44:50.686Z,2.55
2023-04-07T10:45:56.015Z,2.78
2023-04-07T10:47:00.897Z,2.42
2023-04-07T10:48:03.152Z,2.53
2023-04-07T10:49:09.794Z,2.92
2023-04-07T10:50:22.758Z,2.55
2023-04-07T10:51:24.927Z,3.17
2023-04-07T10:52:27.081Z,2.92
2023-04-07T10:53:29.220Z,2.58
2023-04-07T10:54:31.877Z,3.33
2023-04-07T10:55:46.308Z,2.90
2023-04-07T10:57:03.468Z,2.90
2023-04-07T10:58:24.806Z,3.40
2023-04-07T10:59:27.984Z,3.05
2023-04-07T11:00:30.416Z,3.08
2023-04-07T11:01:34.602Z,2.85
2023-04-07T11:02:39.934Z,3.30
2023-04-07T11:03:53.195Z,2.80
2023-04-07T11:04:56.178Z,2.85
2023-04-07T11:06:08.368Z,2.55
2023-04-07T11:07:11.426Z,2.67
2023-04-07T11:08:13.609Z,2.75
2023-04-07T11:09:21.768Z,2.97
2023-04-07T11:10:24.059Z,2.80
2023-04-07T11:11:38.486Z,2.83
2023-04-07T11:12:40.695Z,2.40
2023-04-07T11:13:48.659Z,2.97
2023-04-07T11:14:51.385Z,2.42
2023-04-07T11:15:54.090Z,2.40
2023-04-07T11:16:56.768Z,2.70
2023-04-07T11:18:18.273Z,2.63
2023-04-07T11:19:20.452Z,3.13
2023-04-07T11:20:22.651Z,2.90
2023-04-07T11:21:24.864Z,3.00
2023-04-07T11:22:30.326Z,2.70
2023-04-07T11:23:39.721Z,3.00
2023-04-07T11:24:42.258Z,3.08
2023-04-07T11:25:49.798Z,2.55
2023-04-07T11:26:51.972Z,3.05
2023-04-07T11:27:54.126Z,3.25
2023-04-07T11:28:58.677Z,3.25
2023-04-07T11:30:00.860Z,2.58
2023-04-07T11:31:03.958Z,3.05
2023-04-07T11:32:06.264Z,2.80
2023-04-07T11:33:08.788Z,3.10
2023-04-07T11:34:11.265Z,2.70
2023-04-07T11:35:13.451Z,3.05
2023-04-07T11:36:26.831Z,3.00
2023-04-07T11:37:29.120Z,2.83
2023-04-07T11:38:38.585Z,2.83
2023-04-07T11:39:41.069Z,3.17
2023-04-07T11:40:43.265Z,2.70
2023-04-07T11:41:47.592Z,4.38
2023-04-07T11:42:49.829Z,2.90
2023-04-07T11:44:08.470Z,2.83
2023-04-07T11:45:19.349Z,2.83
2023-04-07T11:46:22.539Z,2.70
2023-04-07T11:47:39.772Z,2.60
2023-04-07T11:48:43.526Z,3.35
2023-04-07T11:49:46.969Z,2.80
2023-04-07T11:50:49.276Z,2.67
2023-04-07T11:52:04.615Z,2.50
2023-04-07T11:53:06.871Z,2.70
2023-04-07T11:54:10.064Z,2.45
2023-04-07T11:55:23.592Z,2.85
2023-04-07T11:56:27.972Z,2.10
2023-04-07T11:57:30.201Z,2.60
2023-04-07T11:58:32.608Z,2.53
2023-04-07T11:59:34.794Z,2.00
2023-04-07T12:00:37.426Z,2.40
2023-04-07T12:01:45.003Z,2.10
2023-04-07T12:02:47.496Z,2.30
2023-04-07T12:04:01.959Z,2.30
2023-04-07T12:05:06.016Z,1.95
2023-04-07T12:06:08.271Z,2.33
2023-04-07T12:07:11.613Z,2.15
2023-04-07T12:08:15.914Z,2.00
2023-04-07T12:09:35.896Z,2.22
2023-04-07T12:10:40.391Z,2.10
2023-04-07T12:11:49.373Z,2.10
2023-04-07T12:12:51.982Z,2.10
2023-04-07T12:13:54.469Z,2.03
2023-04-07T12:14:56.886Z,2.22
2023-04-07T12:15:59.871Z,1.55
2023-04-07T12:17:03.534Z,2.28
2023-04-07T12:18:06.199Z,2.75
2023-04-07T12:19:08.396Z,1.95
2023-04-07T12:20:11.462Z,2.42
2023-04-07T12:21:13.721Z,2.35
2023-04-07T12:22:16.168Z,2.13
2023-04-07T12:23:18.517Z,2.05
2023-04-07T12:24:21.306Z,2.20
2023-04-07T12:25:23.604Z,2.40
2023-04-07T12:26:25.755Z,2.25
2023-04-07T12:27:41.656Z,2.60
2023-04-07T12:28:45.362Z,2.35
2023-04-07T12:29:48.838Z,2.40
2023-04-07T12:30:51.098Z,2.25
2023-04-07T12:31:53.553Z,2.05
2023-04-07T12:32:55.892Z,2.35
2023-04-07T12:33:58.684Z,2.20
2023-04-07T12:35:00.878Z,2.75
2023-04-07T12:36:03.791Z,2.45
2023-04-07T12:37:06.158Z,2.83
2023-04-07T12:38:08.371Z,2.10
2023-04-07T12:39:10.552Z,2.60
2023-04-07T12:40:12.863Z,2.38
2023-04-07T12:41:15.505Z,2.25
2023-04-07T12:42:17.773Z,2.03
2023-04-07T12:43:20.087Z,2.92
2023-04-07T12:44:22.197Z,2.63
2023-04-07T12:45:24.766Z,2.58
2023-04-07T12:46:27.113Z,2.42
2023-04-07T12:47:29.343Z,2.40
2023-04-07T12:48:31.746Z,2.63
2023-04-07T12:49:33.936Z,2.30
2023-04-07T12:50:37.448Z,2.20
2023-04-07T12:51:40.199Z,2.35
2023-04-07T12:52:43.015Z,2.40
2023-04-07T12:53:45.537Z,2.20
2023-04-07T12:54:47.770Z,3.25
2023-04-07T12:55:50.634Z,3.35
2023-04-07T12:56:53.067Z,4.25
2023-04-07T12:57:55.694Z,2.95
2023-04-07T12:58:58.093Z,2.50
2023-04-07T13:00:00.585Z,2.35
2023-04-07T13:01:03.892Z,2.17
2023-04-07T13:02:08.716Z,2.53
2023-04-07T13:03:11.414Z,1.92
2023-04-07T13:04:14.265Z,2.30
2023-04-07T13:05:16.726Z,1.85
2023-04-07T13:06:19.339Z,1.95
2023-04-07T13:07:22.106Z,1.70
2023-04-07T13:08:24.368Z,1.90
2023-04-07T13:09:26.653Z,2.00
2023-04-07T13:10:28.835Z,1.77
2023-04-07T13:11:31.068Z,2.15
2023-04-07T13:12:33.355Z,1.63
2023-04-07T13:13:35.593Z,1.45
2023-04-07T13:14:49.371Z,1.48
2023-04-07T13:15:59.661Z,1.50
2023-04-07T13:17:01.952Z,1.75
2023-04-07T13:18:04.260Z,1.60
2023-04-07T13:19:06.580Z,1.90
2023-04-07T13:20:09.168Z,2.10
2023-04-07T13:21:42.891Z,1.98
2023-04-07T13:22:35.800Z,2.03
2023-04-07T13:23:49.427Z,1.67
2023-04-07T13:24:51.830Z,1.83
2023-04-07T13:25:53.996Z,1.50
2023-04-07T13:26:57.586Z,1.55
2023-04-07T13:27:59.845Z,1.60
2023-04-07T13:29:02.074Z,1.38
2023-04-07T13:30:04.865Z,1.45
2023-04-07T13:31:07.687Z,1.65
2023-04-07T13:32:13.076Z,1.65
2023-04-07T13:33:15.522Z,1.77
2023-04-07T13:34:18.738Z,1.75
2023-04-07T13:35:21.349Z,1.90
2023-04-07T13:36:24.722Z,1.77
2023-04-07T13:37:27.440Z,1.50
2023-04-07T13:38:29.599Z,1.50
2023-04-07T13:39:32.958Z,1.30
2023-04-07T13:40:35.186Z,1.50
2023-04-07T13:41:37.402Z,1.40
2023-04-07T13:42:39.858Z,1.50
2023-04-07T13:43:42.161Z,1.30
2023-04-07T13:44:47.514Z,1.27
2023-04-07T13:45:49.851Z,1.27
2023-04-07T13:46:52.566Z,1.00
2023-04-07T13:47:56.681Z,1.40
2023-04-07T13:48:59.198Z,1.40
2023-04-07T13:50:02.405Z,1.77
2023-04-07T13:51:04.592Z,1.27
2023-04-07T13:52:06.884Z,1.30
2023-04-07T13:53:09.033Z,1.17
2023-04-07T13:54:11.341Z,1.27
2023-04-07T13:55:13.644Z,1.48
2023-04-07T13:56:17.051Z,1.45
2023-04-07T13:57:20.956Z,1.45
2023-04-07T13:58:23.135Z,1.58
2023-04-07T13:59:25.307Z,1.40
2023-04-07T14:00:27.538Z,1.27
2023-04-07T14:01:29.832Z,1.30
2023-04-07T14:02:32.852Z,1.30
2023-04-07T14:03:35.330Z,1.20
2023-04-07T14:04:37.871Z,1.08
2023-04-07T14:05:40.242Z,1.10
2023-04-07T14:06:42.906Z,1.13
2023-04-07T14:07:45.102Z,1.13
2023-04-07T14:08:47.286Z,1.27
2023-04-07T14:09:49.789Z,1.35
2023-04-07T14:10:57.673Z,1.42
2023-04-07T14:12:03.218Z,1.63
2023-04-07T14:13:05.431Z,1.60
2023-04-07T14:14:07.690Z,1.67
2023-04-07T14:15:10.148Z,1.70
2023-04-07T14:16:13.179Z,1.30
2023-04-07T14:17:15.681Z,1.65
2023-04-07T14:18:17.901Z,1.58
2023-04-07T14:19:23.875Z,1.40
2023-04-07T14:20:27.319Z,1.67
2023-04-07T14:21:29.581Z,1.63
2023-04-07T14:22:31.892Z,0.90
2023-04-07T14:23:37.623Z,0.88
2023-04-07T14:24:40.194Z,1.00
2023-04-07T14:25:42.621Z,1.30
2023-04-07T14:26:45.397Z,1.38
2023-04-07T14:27:47.549Z,0.90
2023-04-07T14:28:49.809Z,1.00
2023-04-07T14:29:52.987Z,1.10
2023-04-07T14:30:55.513Z,0.90
2023-04-07T14:31:57.787Z,0.95
2023-04-07T14:33:00.764Z,1.10
2023-04-07T14:34:03.984Z,1.00
2023-04-07T14:35:06.663Z,1.02
2023-04-07T14:36:08.974Z,1.02
2023-04-07T14:37:11.780Z,1.08
2023-04-07T14:38:13.958Z,1.00
2023-04-07T14:39:16.149Z,1.10
2023-04-07T14:40:21.300Z,1.10
2023-04-07T14:41:27.161Z,1.00
2023-04-07T14:42:29.913Z,1.02
2023-04-07T14:43:32.139Z,1.20
2023-04-07T14:44:34.422Z,1.10
2023-04-07T14:45:36.610Z,1.17
2023-04-07T14:46:38.829Z,0.98
2023-04-07T14:47:41.387Z,1.30
2023-04-07T14:48:45.913Z,1.15
2023-04-07T14:49:51.179Z,1.30
2023-04-07T14:51:08.351Z,1.33
2023-04-07T14:52:13.579Z,1.50
2023-04-07T14:53:16.264Z,1.65
2023-04-07T14:54:18.412Z,1.45
2023-04-07T14:55:20.912Z,1.60
2023-04-07T14:56:24.748Z,1.55
2023-04-07T14:57:27.224Z,1.60
2023-04-07T14:58:29.414Z,1.60
2023-04-07T14:59:31.681Z,1.73
2023-04-07T15:00:34.091Z,1.52
2023-04-07T15:01:36.433Z,1.25
2023-04-07T15:02:39.565Z,1.00
2023-04-07T15:03:42.844Z,1.05
2023-04-07T15:04:45.230Z,1.10
2023-04-07T15:05:47.477Z,1.23
2023-04-07T15:06:49.639Z,1.55
2023-04-07T15:07:52.390Z,1.40
2023-04-07T15:08:54.564Z,1.23
2023-04-07T15:09:56.747Z,1.33
2023-04-07T15:10:59.195Z,1.60
2023-04-07T15:12:02.185Z,1.27
2023-04-07T15:13:04.548Z,1.10
2023-04-07T15:14:06.837Z,1.35
2023-04-07T15:15:09.271Z,1.00
2023-04-07T15:16:15.560Z,1.10
2023-04-07T15:17:17.907Z,1.38
2023-04-07T15:18:20.348Z,1.08
2023-04-07T15:19:22.603Z,1.05
2023-04-07T15:20:24.844Z,0.95
2023-04-07T15:21:27.650Z,1.20
2023-04-07T15:22:30.690Z,1.40
2023-04-07T15:23:33.423Z,1.25
2023-04-07T15:24:35.564Z,1.60
2023-04-07T15:25:37.795Z,1.55
2023-04-07T15:26:40.049Z,1.33
2023-04-07T15:27:42.252Z,1.20
2023-04-07T15:28:44.440Z,1.00
2023-04-07T15:29:47.072Z,1.08
2023-04-07T15:30:49.317Z,1.20
2023-04-07T15:31:51.656Z,1.20
2023-04-07T15:33:00.880Z,1.08
2023-04-07T15:34:03.249Z,1.20
2023-04-07T15:35:06.386Z,1.30
2023-04-07T15:36:09.093Z,1.30
2023-04-07T15:37:11.412Z,1.30
2023-04-07T15:38:13.602Z,1.23
2023-04-07T15:39:16.900Z,1.50
2023-04-07T15:40:19.303Z,1.40
2023-04-07T15:41:21.664Z,1.50
2023-04-07T15:42:23.927Z,1.33
2023-04-07T15:43:26.140Z,1.80
2023-04-07T15:44:28.260Z,1.40
2023-04-07T15:45:30.476Z,1.30
2023-04-07T15:46:32.826Z,1.48
2023-04-07T15:47:35.226Z,1.30
2023-04-07T15:48:37.442Z,1.55
2023-04-07T15:49:39.661Z,1.48
2023-04-07T15:50:41.891Z,1.88
2023-04-07T15:51:44.083Z,2.25
2023-04-07T15:52:46.350Z,1.60
2023-04-07T15:53:48.703Z,1.55
2023-04-07T15:54:50.989Z,1.65
2023-04-07T15:55:53.284Z,3.42
2023-04-07T15:56:55.484Z,2.42
2023-04-07T15:57:57.642Z,2.40
2023-04-07T15:58:59.973Z,3.30
2023-04-07T16:00:02.150Z,2.15
2023-04-07T16:01:08.673Z,1.90
2023-04-07T16:02:13.032Z,1.75
2023-04-07T16:03:17.043Z,1.60
2023-04-07T16:04:19.758Z,2.00
2023-04-07T16:05:22.137Z,1.80
2023-04-07T16:06:24.278Z,1.60
2023-04-07T16:07:26.623Z,1.70
2023-04-07T16:08:28.833Z,1.70